createdAt,value
2023-03-12T00:02:25.072Z,16.60
2023-03-12T00:04:53.187Z,17.80
2023-03-12T00:07:20.949Z,21.80
2023-03-12T00:09:48.610Z,12.80
2023-03-12T00:12:16.276Z,12.00
2023-03-12T00:14:44.047Z,13.30
2023-03-12T00:17:11.802Z,23.10
2023-03-12T00:19:39.563Z,13.80
2023-03-12T00:22:07.337Z,11.00
2023-03-12T00:24:34.989Z,14.10
2023-03-12T00:27:02.657Z,10.50
2023-03-12T00:29:30.413Z,15.40
2023-03-12T00:31:58.082Z,12.00
2023-03-12T00:34:25.841Z,14.70
2023-03-12T00:36:53.501Z,13.60
2023-03-12T00:39:21.270Z,10.90
2023-03-12T00:41:48.934Z,14.60
2023-03-12T00:44:16.687Z,12.90
2023-03-12T00:46:44.539Z,11.20
2023-03-12T00:49:12.325Z,11.60
2023-03-12T00:51:40.080Z,9.40
2023-03-12T00:54:07.741Z,15.40
2023-03-12T00:56:35.405Z,11.20
2023-03-12T00:59:03.170Z,12.80
2023-03-12T01:01:30.934Z,9.50
2023-03-12T01:03:59.962Z,11.50
2023-03-12T01:06:27.796Z,13.00
2023-03-12T01:08:55.967Z,11.80
2023-03-12T01:11:23.630Z,10.80
2023-03-12T01:13:51.290Z,13.00
2023-03-12T01:16:19.100Z,11.20
2023-03-12T01:18:46.922Z,12.30
2023-03-12T01:21:14.994Z,11.00
2023-03-12T01:23:42.759Z,13.10
2023-03-12T01:26:10.521Z,10.40
2023-03-12T01:28:38.285Z,9.60
2023-03-12T01:31:06.015Z,9.90
2023-03-12T01:33:33.706Z,15.10
2023-03-12T01:36:01.469Z,10.60
2023-03-12T01:38:29.341Z,11.20
2023-03-12T01:40:56.999Z,11.10
2023-03-12T01:43:25.174Z,11.60
2023-03-12T01:45:52.980Z,11.70
2023-03-12T01:48:20.710Z,10.70
2023-03-12T01:50:48.472Z,11.80
2023-03-12T01:53:16.655Z,10.90
2023-03-12T01:55:44.606Z,9.80
2023-03-12T01:58:12.264Z,7.80
2023-03-12T02:00:40.034Z,11.60
2023-03-12T02:03:07.904Z,14.10
2023-03-12T02:05:35.661Z,10.40
2023-03-12T02:08:03.942Z,8.50
2023-03-12T02:10:31.607Z,8.80
2023-03-12T02:12:59.367Z,14.80
2023-03-12T02:15:28.046Z,9.90
2023-03-12T02:17:55.698Z,8.90
2023-03-12T02:20:23.589Z,10.50
2023-03-12T02:22:51.357Z,9.10
2023-03-12T02:25:19.112Z,7.90
2023-03-12T02:27:46.875Z,13.00
2023-03-12T02:30:17.708Z,9.00
2023-03-12T02:32:45.424Z,9.30
2023-03-12T02:35:13.340Z,6.90
2023-03-12T02:37:40.997Z,9.60
2023-03-12T02:40:10.095Z,6.80
2023-03-12T02:42:37.742Z,8.10
2023-03-12T02:45:05.434Z,12.50
2023-03-12T02:47:33.180Z,6.40
2023-03-12T02:50:00.948Z,6.80
2023-03-12T02:52:30.757Z,9.50
2023-03-12T02:54:58.421Z,9.00
2023-03-12T02:57:26.080Z,11.00
2023-03-12T02:59:53.733Z,7.60
2023-03-12T03:02:21.403Z,10.20
2023-03-12T03:04:49.384Z,12.10
2023-03-12T03:07:17.136Z,8.80
2023-03-12T03:09:44.801Z,7.90
2023-03-12T03:12:12.568Z,7.40
2023-03-12T03:14:40.326Z,11.20
2023-03-12T03:17:08.088Z,10.00
2023-03-12T03:19:35.732Z,6.80
2023-03-12T03:22:03.516Z,7.10
2023-03-12T03:24:31.282Z,11.00
2023-03-12T03:26:59.046Z,8.40
2023-03-12T03:29:26.718Z,7.70
2023-03-12T03:31:54.477Z,8.10
2023-03-12T03:34:22.237Z,9.90
2023-03-12T03:36:49.997Z,9.80
2023-03-12T03:39:17.786Z,8.70
2023-03-12T03:41:47.467Z,9.20
2023-03-12T03:44:15.132Z,10.40
2023-03-12T03:46:42.806Z,7.90
2023-03-12T03:49:10.456Z,8.50
2023-03-12T03:51:38.233Z,11.80
2023-03-12T03:54:05.999Z,9.80
2023-03-12T03:56:33.645Z,9.10
2023-03-12T03:59:02.241Z,10.70
2023-03-12T04:01:30.200Z,9.90
2023-03-12T04:03:57.971Z,14.50
2023-03-12T04:06:25.723Z,7.80
2023-03-12T04:08:53.488Z,9.20
2023-03-12T04:11:21.278Z,12.10
2023-03-12T04:13:49.015Z,10.20
2023-03-12T04:16:16.850Z,15.00
2023-03-12T04:18:44.746Z,21.10
2023-03-12T04:21:12.407Z,13.20
2023-03-12T04:23:40.136Z,10.80
2023-03-12T04:26:07.936Z,17.10
2023-03-12T04:28:35.717Z,14.10
2023-03-12T04:31:03.499Z,12.80
2023-03-12T04:33:31.344Z,18.10
2023-03-12T04:35:59.072Z,22.60
2023-03-12T04:38:26.757Z,13.90
2023-03-12T04:40:54.420Z,13.00
2023-03-12T04:43:22.184Z,16.30
2023-03-12T04:45:49.819Z,19.30
2023-03-12T04:48:17.510Z,20.00
2023-03-12T04:50:45.274Z,18.80
2023-03-12T04:53:13.052Z,14.40
2023-03-12T04:55:40.804Z,19.60
2023-03-12T04:58:08.567Z,21.60
2023-03-12T05:00:36.232Z,14.50
2023-03-12T05:03:04.018Z,17.40
2023-03-12T05:05:31.761Z,17.40
2023-03-12T05:07:59.931Z,16.70
2023-03-12T05:10:27.696Z,13.50
2023-03-12T05:12:55.459Z,16.70
2023-03-12T05:15:23.222Z,20.80
2023-03-12T05:17:50.912Z,13.80
2023-03-12T05:20:18.657Z,16.20
2023-03-12T05:22:46.421Z,12.30
2023-03-12T05:25:14.594Z,11.30
2023-03-12T05:27:42.557Z,12.00
2023-03-12T05:30:10.263Z,16.60
2023-03-12T05:32:38.053Z,17.00
2023-03-12T05:35:05.752Z,14.50
2023-03-12T05:37:33.516Z,16.40
2023-03-12T05:40:01.171Z,14.50
2023-03-12T05:42:28.936Z,17.70
2023-03-12T05:44:56.597Z,16.50
2023-03-12T05:47:24.363Z,10.40
2023-03-12T05:49:52.150Z,9.60
2023-03-12T05:52:19.890Z,15.60
2023-03-12T05:54:47.649Z,16.50
2023-03-12T05:57:15.412Z,14.00
2023-03-12T05:59:43.076Z,11.40
2023-03-12T06:02:10.885Z,14.20
2023-03-12T06:04:38.700Z,10.70
2023-03-12T06:07:06.479Z,12.70
2023-03-12T06:09:34.227Z,13.30
2023-03-12T06:12:01.891Z,10.60
2023-03-12T06:14:30.169Z,11.40
2023-03-12T06:16:57.922Z,10.20
2023-03-12T06:19:25.706Z,11.50
2023-03-12T06:21:53.463Z,10.00
2023-03-12T06:24:21.225Z,13.10
2023-03-12T06:26:48.888Z,15.10
2023-03-12T06:29:16.565Z,12.80
2023-03-12T06:31:44.551Z,9.20
2023-03-12T06:34:12.481Z,11.20
2023-03-12T06:36:40.142Z,14.20
2023-03-12T06:39:09.238Z,14.70
2023-03-12T06:41:37.119Z,10.40
2023-03-12T06:44:06.527Z,12.10
2023-03-12T06:46:34.559Z,17.50
2023-03-12T06:49:02.450Z,7.40
2023-03-12T06:51:30.211Z,11.30
2023-03-12T06:53:57.939Z,11.20
2023-03-12T06:56:25.840Z,12.30
2023-03-12T06:58:53.501Z,9.00
2023-03-12T07:01:21.162Z,13.50
2023-03-12T07:03:48.930Z,10.80
2023-03-12T07:06:16.692Z,9.80
2023-03-12T07:08:44.466Z,9.80
2023-03-12T07:11:12.222Z,12.80
2023-03-12T07:13:40.090Z,13.40
2023-03-12T07:16:07.913Z,9.70
2023-03-12T07:18:35.725Z,10.60
2023-03-12T07:21:03.385Z,7.90
2023-03-12T07:23:31.151Z,16.70
2023-03-12T07:25:58.913Z,14.20
2023-03-12T07:28:26.585Z,17.30
2023-03-12T07:30:54.339Z,13.80
2023-03-12T07:33:22.292Z,15.00
2023-03-12T07:35:51.732Z,9.20
2023-03-12T07:38:19.804Z,8.40
2023-03-12T07:40:47.926Z,8.60
2023-03-12T07:43:15.822Z,7.40
2023-03-12T07:45:43.599Z,13.90
2023-03-12T07:48:11.606Z,9.50
2023-03-12T07:50:39.417Z,8.40
2023-03-12T07:53:07.082Z,16.10
2023-03-12T07:55:34.914Z,25.10
2023-03-12T07:58:02.739Z,29.30
2023-03-12T08:00:30.795Z,17.50
2023-03-12T08:02:58.785Z,15.90
2023-03-12T08:05:27.277Z,15.50
2023-03-12T08:07:55.095Z,19.30
2023-03-12T08:10:22.901Z,17.80
2023-03-12T08:12:50.860Z,14.70
2023-03-12T08:15:18.691Z,15.70
2023-03-12T08:17:46.654Z,12.50
2023-03-12T08:20:14.426Z,12.00
2023-03-12T08:22:42.193Z,11.80
2023-03-12T08:25:09.959Z,19.90
2023-03-12T08:27:37.715Z,13.80
2023-03-12T08:30:05.961Z,10.10
2023-03-12T08:32:33.942Z,13.30
2023-03-12T08:35:01.826Z,10.50
2023-03-12T08:37:30.513Z,11.20
2023-03-12T08:39:58.174Z,17.20
2023-03-12T08:42:25.838Z,14.50
2023-03-12T08:44:53.598Z,11.50
2023-03-12T08:47:21.280Z,21.40
2023-03-12T08:49:48.930Z,9.00
2023-03-12T08:52:17.099Z,19.00
2023-03-12T08:54:44.864Z,15.10
2023-03-12T08:57:12.627Z,22.10
2023-03-12T08:59:40.294Z,29.00
2023-03-12T09:02:07.952Z,17.80
2023-03-12T09:04:35.634Z,19.90
2023-03-12T09:07:03.485Z,15.10
2023-03-12T09:09:31.245Z,9.00
2023-03-12T09:11:58.905Z,7.90
2023-03-12T09:17:14.198Z,13.80
2023-03-12T09:19:41.964Z,9.20
2023-03-12T09:22:09.622Z,8.30
2023-03-12T09:24:37.384Z,14.90
2023-03-12T09:27:05.044Z,12.90
2023-03-12T09:29:32.816Z,8.20
2023-03-12T09:32:00.468Z,7.60
2023-03-12T09:34:28.105Z,6.00
2023-03-12T09:36:55.891Z,7.10
2023-03-12T09:39:23.779Z,10.40
2023-03-12T09:41:51.726Z,13.40
2023-03-12T09:44:19.592Z,5.60
2023-03-12T09:46:47.357Z,8.60
2023-03-12T09:49:15.023Z,6.50
2023-03-12T09:51:42.789Z,7.70
2023-03-12T09:54:10.547Z,5.80
2023-03-12T09:56:38.209Z,8.00
2023-03-12T09:59:05.870Z,7.60
2023-03-12T10:01:33.635Z,6.60
2023-03-12T10:04:01.298Z,5.70
2023-03-12T10:06:29.806Z,9.20
2023-03-12T10:08:57.646Z,6.50
2023-03-12T10:11:25.408Z,7.70
2023-03-12T10:13:53.173Z,5.10
2023-03-12T10:16:20.991Z,6.00
2023-03-12T10:18:49.005Z,9.30
2023-03-12T10:21:16.874Z,7.00
2023-03-12T10:23:44.558Z,7.60
2023-03-12T10:26:12.299Z,5.20
2023-03-12T10:28:40.988Z,5.60
2023-03-12T10:31:08.694Z,10.00
2023-03-12T10:33:36.517Z,9.20
2023-03-12T10:36:04.210Z,9.10
2023-03-12T10:38:31.943Z,8.40
2023-03-12T10:40:59.701Z,5.30
2023-03-12T10:43:27.471Z,9.20
2023-03-12T10:45:55.355Z,8.00
2023-03-12T10:48:23.211Z,6.60
2023-03-12T10:50:50.963Z,7.90
2023-03-12T10:53:18.623Z,5.70
2023-03-12T10:55:46.288Z,6.60
2023-03-12T10:58:13.947Z,7.60
2023-03-12T11:00:41.614Z,8.30
2023-03-12T11:03:09.270Z,6.80
2023-03-12T11:05:37.059Z,10.50
2023-03-12T11:08:05.003Z,6.10
2023-03-12T11:10:32.984Z,7.80
2023-03-12T11:13:00.838Z,8.70
2023-03-12T11:15:29.421Z,6.70
2023-03-12T11:17:57.084Z,5.80
2023-03-12T11:20:24.846Z,9.20
2023-03-12T11:22:52.487Z,8.00
2023-03-12T11:25:20.155Z,7.30
2023-03-12T11:27:47.830Z,8.80
2023-03-12T11:30:15.657Z,7.90
2023-03-12T11:32:43.661Z,7.10
2023-03-12T11:35:11.647Z,6.30
2023-03-12T11:37:40.556Z,8.90
2023-03-12T11:40:10.234Z,9.10
2023-03-12T11:42:37.900Z,7.80
2023-03-12T11:45:05.976Z,5.80
2023-03-12T11:47:33.864Z,4.60
2023-03-12T11:50:01.604Z,7.90
2023-03-12T11:52:29.367Z,6.70
2023-03-12T11:54:57.026Z,6.80
2023-03-12T11:57:24.686Z,8.00
2023-03-12T11:59:52.453Z,8.50
2023-03-12T12:02:20.678Z,8.30
2023-03-12T12:04:48.494Z,11.50
2023-03-12T12:07:16.155Z,6.20
2023-03-12T12:09:43.924Z,6.90
2023-03-12T12:12:11.691Z,6.30
2023-03-12T12:14:39.554Z,4.70
2023-03-12T12:17:07.310Z,7.30
2023-03-12T12:19:35.065Z,6.00
2023-03-12T12:22:02.956Z,5.80
2023-03-12T12:24:30.808Z,6.80
2023-03-12T12:26:58.573Z,5.80
2023-03-12T12:29:26.191Z,8.20
2023-03-12T12:31:53.903Z,8.50
2023-03-12T12:34:21.659Z,7.20
2023-03-12T12:36:49.422Z,6.60
2023-03-12T12:39:17.083Z,6.90
2023-03-12T12:41:44.784Z,6.90
2023-03-12T12:44:12.722Z,8.10
2023-03-12T12:46:40.488Z,7.30
2023-03-12T12:49:08.256Z,7.20
2023-03-12T12:51:36.110Z,5.80
2023-03-12T12:54:03.893Z,5.60
2023-03-12T12:56:31.741Z,7.50
2023-03-12T12:58:59.509Z,17.10
2023-03-12T13:01:27.960Z,9.00
2023-03-12T13:03:55.979Z,14.40
2023-03-12T13:06:23.720Z,8.70
2023-03-12T13:08:51.538Z,4.90
2023-03-12T13:11:20.790Z,11.50
2023-03-12T13:13:49.571Z,8.30
2023-03-12T13:16:17.278Z,10.60
2023-03-12T13:18:45.111Z,12.80
2023-03-12T13:21:12.974Z,10.80
2023-03-12T13:23:40.936Z,9.00
2023-03-12T13:26:08.710Z,8.10
2023-03-12T13:28:36.683Z,14.90
2023-03-12T13:31:04.479Z,12.50
2023-03-12T13:33:32.202Z,12.20
2023-03-12T13:35:59.890Z,9.80
2023-03-12T13:38:31.641Z,10.40
2023-03-12T13:41:02.474Z,11.60
2023-03-12T13:43:30.331Z,10.60
2023-03-12T13:45:58.010Z,15.70
2023-03-12T13:48:26.158Z,14.90
2023-03-12T13:50:53.766Z,14.60
2023-03-12T13:53:21.587Z,11.60
2023-03-12T13:55:49.241Z,11.70
2023-03-12T13:58:17.111Z,13.50
2023-03-12T14:00:44.774Z,8.50
2023-03-12T14:03:12.535Z,7.30
2023-03-12T14:05:40.194Z,12.40
2023-03-12T14:08:09.904Z,11.50
2023-03-12T14:10:37.566Z,12.20
2023-03-12T14:13:05.226Z,9.60
2023-03-12T14:15:33.226Z,11.10
2023-03-12T14:18:00.965Z,8.90
2023-03-12T14:20:28.722Z,11.30
2023-03-12T14:22:56.487Z,12.00
2023-03-12T14:25:24.148Z,10.60
2023-03-12T14:27:51.928Z,7.80
2023-03-12T14:30:19.786Z,15.50
2023-03-12T14:32:48.297Z,9.00
2023-03-12T14:35:16.669Z,9.40
2023-03-12T14:37:44.641Z,10.70
2023-03-12T14:40:12.485Z,7.60
2023-03-12T14:42:40.451Z,10.20
2023-03-12T14:45:08.108Z,11.70
2023-03-12T14:47:35.768Z,8.40
2023-03-12T14:50:04.169Z,10.30
2023-03-12T14:52:36.014Z,9.10
2023-03-12T14:55:04.795Z,13.60
2023-03-12T14:57:32.556Z,9.80
2023-03-12T15:00:00.525Z,9.30
2023-03-12T15:02:28.184Z,9.60
2023-03-12T15:04:56.082Z,8.10
2023-03-12T15:07:24.021Z,6.80
2023-03-12T15:09:51.786Z,10.50
2023-03-12T15:12:19.448Z,8.70
2023-03-12T15:14:49.610Z,27.20
2023-03-12T15:17:17.456Z,26.50
2023-03-12T15:19:45.200Z,15.50
2023-03-12T15:22:12.959Z,15.10
2023-03-12T15:24:41.031Z,15.30
2023-03-12T15:27:08.699Z,11.60
2023-03-12T15:29:36.355Z,9.70
2023-03-12T15:32:04.432Z,10.10
2023-03-12T15:34:33.161Z,7.30
2023-03-12T15:37:01.182Z,7.60
2023-03-12T15:39:29.928Z,8.40
2023-03-12T15:41:57.763Z,15.80
2023-03-12T15:44:25.610Z,17.50
2023-03-12T15:46:53.459Z,18.30
2023-03-12T15:49:21.333Z,28.30
2023-03-12T15:51:49.015Z,15.70
2023-03-12T15:54:16.760Z,46.10
2023-03-12T15:56:44.523Z,40.10
2023-03-12T15:59:12.288Z,35.40
2023-03-12T16:01:39.984Z,32.80
2023-03-12T16:04:07.822Z,39.00
2023-03-12T16:06:36.706Z,24.90
2023-03-12T16:09:04.338Z,19.80
2023-03-12T16:11:32.352Z,30.00
2023-03-12T16:14:00.311Z,34.60
2023-03-12T16:16:28.123Z,37.90
2023-03-12T16:18:55.953Z,27.70
2023-03-12T16:21:23.700Z,23.50
2023-03-12T16:23:51.470Z,18.00
2023-03-12T16:26:19.850Z,18.90
2023-03-12T16:28:47.608Z,20.50
2023-03-12T16:31:15.472Z,14.60
2023-03-12T16:33:44.061Z,17.70
2023-03-12T16:36:12.542Z,23.00
2023-03-12T16:38:40.302Z,14.30
2023-03-12T16:41:07.969Z,18.50
2023-03-12T16:43:35.624Z,14.50
2023-03-12T16:46:04.134Z,15.00
2023-03-12T16:48:32.087Z,17.90
2023-03-12T16:51:00.137Z,16.20
2023-03-12T16:53:28.112Z,23.00
2023-03-12T16:55:55.779Z,15.60
2023-03-12T16:58:24.251Z,14.90
2023-03-12T17:00:51.934Z,18.80
2023-03-12T17:03:19.780Z,22.30
2023-03-12T17:05:47.542Z,45.30
2023-03-12T17:08:15.853Z,30.20
2023-03-12T17:10:43.787Z,24.50
2023-03-12T17:13:11.699Z,18.30
2023-03-12T17:15:39.692Z,29.00
2023-03-12T17:18:09.691Z,21.10
2023-03-12T17:20:37.710Z,27.80
2023-03-12T17:23:05.370Z,27.80
2023-03-12T17:25:33.150Z,20.40
2023-03-12T17:28:00.904Z,29.60
2023-03-12T17:30:28.560Z,22.60
2023-03-12T17:32:57.932Z,21.10
2023-03-12T17:35:25.642Z,18.50
2023-03-12T17:37:53.391Z,25.80
2023-03-12T17:40:21.158Z,23.90
2023-03-12T17:42:48.917Z,33.20
2023-03-12T17:45:16.798Z,35.60
2023-03-12T17:47:44.597Z,47.80
2023-03-12T17:50:12.534Z,38.40
2023-03-12T17:52:40.283Z,60.30
2023-03-12T17:55:10.444Z,53.30
2023-03-12T17:57:39.524Z,60.40
2023-03-12T18:00:11.876Z,94.60
2023-03-12T18:02:39.633Z,59.40
2023-03-12T18:05:07.787Z,100.80
2023-03-12T18:07:35.679Z,52.70
2023-03-12T18:10:03.438Z,56.60
2023-03-12T18:12:31.100Z,71.40
2023-03-12T18:14:58.759Z,148.00
2023-03-12T18:17:26.420Z,139.10
2023-03-12T18:19:54.086Z,89.50
2023-03-12T18:22:21.949Z,98.10
2023-03-12T18:24:49.813Z,97.30
2023-03-12T18:27:17.578Z,77.40
2023-03-12T18:29:45.320Z,73.20
2023-03-12T18:32:13.620Z,71.20
2023-03-12T18:34:42.616Z,79.80
2023-03-12T18:37:10.382Z,79.00
2023-03-12T18:39:38.041Z,70.50
2023-03-12T18:42:05.811Z,67.50
2023-03-12T18:44:33.579Z,62.30
2023-03-12T18:47:01.384Z,60.10
2023-03-12T18:49:29.405Z,82.40
2023-03-12T18:51:57.168Z,102.60
2023-03-12T18:54:24.999Z,94.50
2023-03-12T18:56:52.799Z,82.50
2023-03-12T18:59:20.668Z,76.60
2023-03-12T19:01:48.326Z,70.90
2023-03-12T19:04:16.041Z,103.30
2023-03-12T19:06:50.734Z,131.40
2023-03-12T19:09:19.713Z,112.50
2023-03-12T19:11:48.148Z,105.90
2023-03-12T19:14:16.463Z,81.80
2023-03-12T19:16:44.232Z,80.60
2023-03-12T19:19:11.998Z,61.80
2023-03-12T19:21:39.660Z,64.60
2023-03-12T19:24:08.015Z,60.80
2023-03-12T19:26:36.359Z,53.20
2023-03-12T19:29:04.084Z,59.00
2023-03-12T19:31:31.900Z,68.70
2023-03-12T19:33:59.705Z,66.70
2023-03-12T19:36:27.371Z,71.20
2023-03-12T19:38:55.742Z,67.50
2023-03-12T19:41:23.517Z,73.40
2023-03-12T19:43:51.170Z,76.20
2023-03-12T19:46:18.981Z,70.20
2023-03-12T19:48:46.694Z,74.50
2023-03-12T19:51:14.357Z,66.80
2023-03-12T19:53:42.124Z,74.60
2023-03-12T19:56:10.005Z,74.60
2023-03-12T19:58:37.750Z,93.80
2023-03-12T20:01:05.409Z,102.30
2023-03-12T20:03:33.370Z,114.10
2023-03-12T20:06:01.270Z,105.80
2023-03-12T20:08:32.096Z,80.70
2023-03-12T20:10:59.847Z,97.90
2023-03-12T20:13:27.508Z,99.90
2023-03-12T20:15:55.271Z,103.50
2023-03-12T20:18:22.931Z,125.20
2023-03-12T20:20:50.699Z,150.60
2023-03-12T20:23:18.463Z,177.80
2023-03-12T20:25:46.223Z,193.80
2023-03-12T20:28:14.093Z,156.80
2023-03-12T20:30:41.855Z,141.50
2023-03-12T20:33:09.615Z,118.90
2023-03-12T20:35:37.334Z,84.20
2023-03-12T20:38:05.159Z,69.50
2023-03-12T20:40:32.815Z,71.60
2023-03-12T20:43:05.004Z,61.70
2023-03-12T20:45:35.268Z,66.60
2023-03-12T20:48:03.006Z,60.50
2023-03-12T20:50:31.340Z,69.00
2023-03-12T20:52:59.929Z,62.70
2023-03-12T20:55:27.735Z,72.70
2023-03-12T20:57:55.453Z,109.10
2023-03-12T21:00:23.217Z,109.90
2023-03-12T21:02:50.923Z,127.20
2023-03-12T21:05:18.747Z,121.00
2023-03-12T21:07:46.408Z,231.70
2023-03-12T21:10:16.634Z,261.00
2023-03-12T21:12:44.292Z,319.10
2023-03-12T21:15:12.780Z,469.70
2023-03-12T21:17:40.768Z,410.20
2023-03-12T21:20:11.269Z,481.80
2023-03-12T21:22:39.042Z,440.60
2023-03-12T21:25:06.697Z,571.50
2023-03-12T21:27:48.068Z,556.30
2023-03-12T21:30:17.994Z,376.90
2023-03-12T21:32:45.735Z,267.00
2023-03-12T21:35:13.441Z,204.10
2023-03-12T21:37:41.397Z,206.60
2023-03-12T21:40:09.473Z,150.20
2023-03-12T21:42:37.124Z,115.20
2023-03-12T21:45:04.899Z,103.30
2023-03-12T21:47:32.546Z,95.90
2023-03-12T21:50:00.211Z,74.30
2023-03-12T21:52:27.871Z,90.50
2023-03-12T21:54:55.533Z,87.10
2023-03-12T21:57:23.191Z,85.30
2023-03-12T21:59:50.851Z,68.00
2023-03-12T22:02:18.515Z,57.70
2023-03-12T22:04:46.235Z,60.80
2023-03-12T22:07:14.048Z,54.80
2023-03-12T22:09:41.703Z,49.40
2023-03-12T22:12:09.470Z,66.70
2023-03-12T22:14:37.440Z,73.50
2023-03-12T22:17:05.328Z,83.10
2023-03-12T22:19:33.067Z,69.40
2023-03-12T22:22:00.830Z,75.20
2023-03-12T22:24:28.493Z,56.00
2023-03-12T22:26:56.263Z,58.60
2023-03-12T22:29:24.019Z,55.90
2023-03-12T22:31:51.679Z,45.10
2023-03-12T22:34:19.444Z,78.10
2023-03-12T22:36:47.116Z,56.40
2023-03-12T22:39:14.766Z,43.10
2023-03-12T22:41:42.735Z,36.10
2023-03-12T22:44:10.396Z,33.00
2023-03-12T22:46:38.074Z,33.90
2023-03-12T22:49:05.928Z,30.00
2023-03-12T22:51:33.729Z,28.50
2023-03-12T22:54:01.565Z,32.30
2023-03-12T22:56:29.317Z,32.40
2023-03-12T22:58:57.085Z,22.50
2023-03-12T23:01:24.950Z,24.30
2023-03-12T23:03:52.716Z,24.00
2023-03-12T23:06:20.381Z,25.20
2023-03-12T23:08:48.447Z,22.60
2023-03-12T23:11:16.235Z,24.20
2023-03-12T23:13:44.730Z,23.40
2023-03-12T23:16:12.608Z,21.00
2023-03-12T23:18:40.319Z,21.40
2023-03-12T23:21:08.093Z,23.30
2023-03-12T23:23:35.743Z,17.70
2023-03-12T23:26:03.856Z,16.30
2023-03-12T23:28:31.587Z,18.00
2023-03-12T23:30:59.343Z,17.70
2023-03-12T23:33:27.113Z,20.70
2023-03-12T23:35:54.990Z,15.80
2023-03-12T23:38:23.047Z,17.60
2023-03-12T23:40:51.022Z,21.00
2023-03-12T23:43:18.692Z,16.40
2023-03-12T23:45:46.727Z,17.60
2023-03-12T23:48:14.412Z,18.90
2023-03-12T23:50:42.385Z,19.90
2023-03-12T23:53:10.046Z,22.80
2023-03-12T23:55:37.706Z,21.00
2023-03-12T23:58:05.363Z,23.60
